Date,TemperatureHighF,TemperatureAvgF,TemperatureLowF,DewpointHighF,DewpointAvgF,DewpointLowF,HumidityHigh,HumidityAvg,HumidityLow,PressureMaxIn,PressureMinIn,WindSpeedMaxMPH,WindSpeedAvgMPH,GustSpeedMaxMPH,PrecipitationSumIn
2013-1-1,26,23,20,20,16,13,85,73,64,30.21,30.09,10,1,11,0.00
2013-1-2,27,24,19,23,19,13,85,80,75,30.20,30.12,9,2,11,0.00
2013-1-3,30,26,20,25,21,13,87,82,75,30.20,30.07,8,2,14,0.00
2013-1-4,34,30,27,28,25,22,86,81,74,30.20,30.07,13,5,22,0.00
2013-1-5,38,30,22,31,25,19,87,82,65,30.25,29.98,7,1,12,0.03
2013-1-6,36,34,30,33,29,25,87,84,76,30.30,29.88,6,2,12,0.19
2013-1-7,39,32,27,27,23,18,86,71,45,30.34,30.12,12,2,15,0.00
2013-1-8,38,32,27,29,26,24,87,79,68,30.22,30.09,5,1,10,0.00
2013-1-9,44,39,30,35,31,26,85,74,53,30.44,30.00,16,4,27,0.00
2013-1-10,46,34,24,32,27,20,87,76,50,30.55,30.08,6,1,10,0.16
2013-1-11,52,46,36,45,40,32,85,80,77,30.06,29.72,10,1,19,0.70
2013-1-12,56,48,37,49,42,33,85,78,61,29.96,29.75,8,2,18,0.03
2013-1-13,37,31,25,33,27,20,87,83,80,30.13,29.85,12,2,16,0.23
2013-1-14,26,22,17,19,17,13,87,81,71,30.46,30.14,12,2,16,0.00
2013-1-15,31,23,17,20,18,14,87,79,61,30.45,30.18,4,0,7,0.00
2013-1-16,35,28,17,30,22,14,87,80,62,30.17,29.81,13,3,19,0.00
2013-1-17,35,27,21,30,18,10,80,67,61,30.37,30.00,11,3,17,0.00
2013-1-18,40,29,18,31,19,10,84,68,59,30.44,29.91,17,2,22,0.00
2013-1-19,45,42,39,38,33,19,80,73,44,29.91,29.60,23,6,31,0.00
2013-1-20,38,18,15,22,12,9,86,78,54,30.24,29.65,20,5,34,0.00
2013-1-21,16,10,3,12,7,0,88,87,85,30.22,30.08,11,3,18,0.00
2013-1-22,10,5,1,6,2,-2,88,87,85,30.36,30.22,7,1,10,0.00
2013-1-23,18,12,4,15,8,1,88,87,86,30.36,30.11,4,0,6,0.00
2013-1-24,20,11,2,13,6,-1,88,80,63,30.68,30.27,2,0,5,0.00
2013-1-25,22,18,13,18,13,5,86,80,67,30.52,30.01,8,1,14,0.00
2013-1-26,29,24,20,22,19,16,87,81,62,30.47,30.10,5,0,9,0.00
2013-1-27,32,26,20,27,21,17,87,81,69,30.47,30.05,9,2,14,0.00
2013-1-28,44,37,32,39,32,27,86,83,80,30.05,29.84,10,1,14,0.56
2013-1-29,56,47,34,50,42,30,87,81,75,29.97,29.38,11,2,15,1.50
2013-1-30,51,40,25,44,34,20,86,81,76,29.40,29.12,9,2,25,0.53
2013-1-31,24,19,16,21,15,12,87,85,82,29.97,29.42,14,4,20,0.00
2013-2-1,16,14,11,13,11,8,88,87,85,30.29,29.98,10,3,14,0.00
2013-2-2,19,14,8,15,10,4,87,84,69,30.20,30.05,3,0,5,0.00
2013-2-3,20,15,9,16,12,6,87,86,82,30.07,29.93,6,1,12,0.00
2013-2-4,24,18,12,19,14,9,87,84,76,30.06,29.93,1,0,5,0.00
2013-2-5,29,20,6,25,16,3,88,85,81,30.05,29.81,9,1,15,0.00
2013-2-6,35,26,12,23,19,9,87,77,62,30.29,30.07,4,0,10,0.06
2013-2-7,33,30,28,29,25,22,85,81,76,30.25,29.89,6,0,10,0.00
2013-2-8,33,28,17,25,22,13,86,79,66,30.40,29.89,0,0,0,0.00
2013-2-9,35,21,7,23,15,3,87,78,60,30.47,30.23,6,0,8,0.00
2013-2-10,42,30,18,36,25,14,86,82,75,30.23,29.57,8,2,18,0.09
2013-2-11,45,35,30,40,30,24,85,80,75,29.92,29.52,20,6,24,0.01
2013-2-12,30,29,27,25,24,22,84,82,78,30.08,29.93,10,3,16,0.00
2013-2-13,39,30,22,31,25,18,85,81,68,29.95,29.75,5,1,9,0.03
2013-2-14,41,33,26,34,28,21,85,81,77,29.94,29.64,13,3,19,0.11
2013-2-15,28,24,20,24,18,15,85,77,64,30.18,29.94,9,2,11,0.00
2013-2-16,22,18,11,17,14,8,86,82,68,30.17,30.08,7,1,13,0.00
2013-2-17,27,15,3,12,8,0,87,75,54,30.29,30.17,6,0,7,0.00
2013-2-18,46,35,20,39,25,12,83,69,58,30.17,29.43,15,3,17,0.21
2013-2-19,43,24,16,38,20,13,87,84,79,30.02,29.38,17,6,26,0.10
2013-2-20,22,19,15,17,14,11,86,80,71,30.35,30.03,11,4,19,0.00
2013-2-21,28,23,20,20,17,15,83,78,70,30.42,30.20,8,1,18,0.00
2013-2-22,33,26,21,28,22,16,85,83,80,30.20,29.87,11,2,15,0.00
2013-2-23,31,28,26,27,24,22,85,84,71,29.95,29.86,8,2,17,0.00
2013-2-24,38,30,21,28,25,17,85,79,60,30.19,29.93,8,1,11,0.15
2013-2-25,42,29,16,29,22,12,85,74,54,30.26,30.11,4,0,6,0.05
2013-2-26,35,31,28,29,25,23,84,78,70,30.13,29.54,10,2,21,0.00
2013-2-27,36,34,32,31,28,27,83,81,79,29.64,29.50,4,0,6,0.50
2013-2-28,37,34,30,32,28,25,84,81,78,30.04,29.64,7,1,13,0.21
2013-3-1,31,28,23,25,20,16,82,75,64,30.20,30.04,6,1,8,0.00
2013-3-2,30,23,14,19,16,11,85,74,58,30.21,30.13,7,1,9,0.00
2013-3-3,32,22,13,19,15,9,86,74,52,30.16,30.07,10,1,12,0.00
2013-3-4,37,24,11,20,15,7,85,71,47,30.21,30.10,3,0,7,0.02
2013-3-5,33,27,21,25,20,14,84,75,66,30.15,29.89,7,1,16,0.00
2013-3-6,40,34,27,30,28,23,84,78,68,30.26,29.98,4,1,11,0.00
2013-3-7,37,32,24,29,24,20,84,73,54,30.45,30.25,8,1,11,0.00
2013-3-8,44,30,17,25,21,12,85,71,45,30.54,30.41,3,0,7,0.00
2013-3-9,43,36,24,34,27,20,84,73,58,30.41,29.97,8,1,13,0.00
2013-3-10,52,46,42,45,39,34,82,78,68,29.96,29.69,7,0,12,0.38
2013-3-11,52,44,34,46,38,29,83,78,70,29.69,29.49,14,2,20,0.27
2013-3-12,35,32,29,30,27,24,84,81,72,29.92,29.68,12,4,19,0.01
2013-3-13,31,27,23,24,19,14,85,72,51,30.28,29.92,15,4,20,0.00
2013-3-14,39,29,19,26,20,15,85,70,45,30.31,30.12,9,1,12,0.00
2013-3-15,39,36,32,34,31,27,84,82,79,30.11,29.86,6,2,12,0.06
2013-3-16,35,30,26,28,24,20,85,78,60,30.11,29.78,10,2,12,0.03
2013-3-17,33,28,24,21,17,12,76,64,48,30.30,30.11,10,2,12,0.00
2013-3-18,34,28,21,29,23,16,84,80,71,30.16,29.60,14,2,23,0.00
2013-3-19,29,24,20,25,18,15,86,78,59,29.99,29.67,14,7,25,0.00
2013-3-20,27,22,15,17,15,11,85,76,59,30.02,29.97,14,5,20,0.00
2013-3-21,30,24,14,25,19,10,85,80,72,30.03,29.95,11,3,20,0.00
2013-3-22,36,30,24,24,22,18,83,72,60,30.08,30.02,10,2,14,0.03
2013-3-23,35,30,24,25,23,20,84,75,64,30.17,30.08,4,1,8,0.00
2013-3-24,39,31,23,27,23,19,84,75,60,30.09,29.73,14,2,20,0.00
2013-3-25,39,34,31,28,26,23,80,72,59,30.02,29.69,11,4,14,0.00
2013-3-26,41,35,30,34,29,26,84,80,67,30.20,30.02,9,2,13,0.06
2013-3-27,43,36,30,30,27,23,84,69,48,30.29,30.20,10,3,18,0.02
2013-3-28,49,37,27,30,25,21,84,64,39,30.33,30.28,12,2,15,0.00
2013-3-29,50,37,23,32,25,18,84,66,36,30.32,30.25,8,2,13,0.00
2013-3-30,58,41,23,36,26,18,85,60,30,30.26,29.89,7,1,14,0.01
2013-3-31,49,43,37,40,36,31,83,75,60,29.88,29.68,15,4,21,0.03
2013-4-1,37,30,27,32,17,13,83,60,47,30.14,29.79,21,4,21,0.00
2013-4-2,37,30,20,21,17,13,84,61,39,30.31,30.14,12,3,20,0.00
2013-4-3,46,32,22,22,18,12,83,59,28,30.48,30.30,6,2,12,0.00
2013-4-4,53,40,25,28,22,18,80,51,30,30.37,29.98,15,3,18,0.00
2013-4-5,49,40,31,29,24,17,78,55,30,30.22,29.98,9,2,14,0.00
2013-4-6,59,48,36,43,27,17,65,45,35,30.21,29.68,16,4,23,0.01
2013-4-7,54,44,34,48,36,29,82,73,59,30.03,29.57,17,4,25,0.09
2013-4-8,53,41,34,48,36,29,82,79,76,30.02,29.66,11,3,23,0.47
2013-4-9,47,43,39,40,37,33,81,79,75,30.06,29.86,6,1,11,1.11
2013-4-10,42,40,38,37,34,32,83,79,77,30.03,29.81,10,2,16,0.39
2013-4-11,38,36,35,33,31,30,83,80,78,29.99,29.66,17,3,21,1.38
2013-4-12,42,38,34,36,32,28,84,80,77,29.78,29.58,11,2,19,0.30
2013-4-13,39,37,35,32,30,26,84,77,61,30.00,29.78,18,5,23,0.07
2013-4-14,51,40,29,42,34,24,83,78,69,30.11,29.84,10,2,16,0.08
2013-4-15,65,54,45,56,47,38,81,75,69,29.94,29.80,9,2,17,0.64
2013-4-16,51,46,41,40,36,30,84,68,48,30.27,29.93,9,2,14,0.33
2013-4-17,52,46,41,41,36,32,81,70,50,30.34,29.95,12,2,24,1.19
2013-4-18,63,55,44,57,48,37,80,76,72,29.99,29.40,14,2,27,2.88
2013-4-19,58,39,34,51,33,26,84,79,69,29.79,29.43,18,6,30,0.25
2013-4-20,38,33,28,28,21,15,84,63,39,30.48,29.79,10,4,20,0.00
2013-4-21,53,39,23,33,24,19,85,60,33,30.62,30.41,7,1,13,0.00
2013-4-22,66,51,34,34,31,28,82,51,24,30.42,30.12,9,2,13,0.00
2013-4-23,65,51,40,51,40,33,79,68,48,30.12,29.84,6,2,16,0.42
2013-4-24,45,38,34,34,29,24,84,70,44,30.11,29.88,10,3,19,0.12
2013-4-25,48,42,35,37,32,28,82,69,50,30.34,30.05,17,4,21,0.21
2013-4-26,66,50,32,42,34,27,83,59,36,30.43,30.27,11,2,15,0.00
2013-4-27,73,59,42,47,40,35,81,54,27,30.30,30.06,9,2,14,0.00
2013-4-28,66,58,52,54,46,38,79,65,51,30.06,29.82,5,1,9,0.00
2013-4-29,71,60,45,56,49,37,81,69,55,29.93,29.82,7,1,13,0.00
2013-4-30,81,67,57,62,57,49,79,70,52,29.95,29.84,11,3,21,0.76
2013-5-1,87,74,61,61,58,55,79,58,35,30.15,29.95,8,2,14,0.00
2013-5-2,84,70,59,62,57,52,78,64,37,30.16,30.05,8,1,11,0.00
2013-5-3,82,67,54,59,52,40,80,62,35,30.09,29.95,10,2,16,0.00
2013-5-4,76,67,58,51,44,40,63,45,28,30.06,29.97,5,1,13,0.00
2013-5-5,78,65,55,49,42,33,62,44,24,30.06,29.97,7,1,13,0.00
2013-5-6,78,63,47,48,41,34,78,49,21,30.05,29.95,5,0,8,0.00
2013-5-7,80,66,49,52,48,42,79,55,34,30.05,29.96,3,0,9,0.00
2013-5-8,81,68,53,57,51,46,78,58,35,30.02,29.93,7,1,10,0.00
2013-5-9,83,66,50,56,48,40,79,58,25,29.97,29.86,10,1,14,0.02
2013-5-10,58,50,46,51,42,38,80,76,72,29.93,29.77,8,1,11,0.44
2013-5-11,54,46,38,48,40,33,82,78,61,29.95,29.76,15,3,25,0.06
2013-5-12,47,41,38,36,31,27,83,67,48,30.14,29.94,15,4,17,0.00
2013-5-13,54,44,29,34,27,20,84,56,28,30.21,30.07,8,1,13,0.00
2013-5-14,73,61,47,55,44,28,79,54,44,30.08,29.61,10,2,17,0.00
2013-5-15,76,69,56,61,52,42,79,56,35,29.81,29.54,10,2,15,0.00
2013-5-16,81,66,47,53,46,40,80,54,29,29.99,29.80,7,1,13,0.00
2013-5-17,70,62,53,49,45,40,65,54,37,30.10,30.00,9,1,10,0.00
2013-5-18,84,69,55,62,53,47,75,57,38,30.12,29.96,5,1,11,0.00
2013-5-19,89,75,58,65,58,48,71,56,43,29.98,29.79,7,1,12,0.00
2013-5-20,88,78,69,71,65,60,78,65,40,29.83,29.70,12,2,21,0.31
2013-5-21,82,73,64,67,63,54,78,70,55,29.75,29.66,10,2,25,0.29
2013-5-22,70,65,57,63,57,49,79,74,71,29.70,29.60,8,1,18,0.50
2013-5-23,57,51,43,49,45,37,82,78,71,30.23,29.70,8,1,12,0.45
2013-5-24,60,48,36,45,38,31,83,70,53,30.40,30.24,8,2,11,0.00
2013-5-25,68,54,39,44,38,32,82,58,28,30.41,30.29,2,0,8,0.00
2013-5-26,72,59,43,45,40,35,81,54,29,30.35,30.20,4,1,9,0.00
2013-5-27,60,54,50,48,43,38,79,66,51,30.21,29.95,7,1,12,0.09
2013-5-28,77,63,53,68,55,45,79,75,69,29.95,29.75,6,1,11,1.60
2013-5-29,81,70,62,68,61,53,79,73,61,29.96,29.77,12,1,12,0.15
2013-5-30,87,78,67,73,67,60,79,70,55,29.95,29.84,8,2,19,0.02
2013-5-31,80,74,66,68,64,57,79,72,59,29.89,29.75,12,2,17,0.25
2013-6-1,79,72,64,66,62,55,81,72,58,29.76,29.64,13,3,20,0.43
2013-6-2,63,56,47,55,48,41,84,75,64,30.03,29.62,9,2,14,0.06
2013-6-3,67,54,40,46,41,34,83,64,43,30.12,30.02,5,1,13,0.00
2013-6-4,75,62,47,52,47,41,82,59,41,30.19,30.11,3,0,7,0.00
2013-6-5,73,63,57,51,46,39,80,55,32,30.15,29.99,7,1,9,0.05
2013-6-6,65,59,55,54,51,48,81,75,66,30.00,29.89,5,1,8,0.10
2013-6-7,76,63,50,52,48,44,82,62,36,29.95,29.84,6,1,8,0.00
2013-6-8,75,64,51,55,50,44,82,63,35,30.02,29.89,3,1,7,0.00
2013-6-9,82,70,58,64,59,52,81,68,50,30.04,29.87,6,1,14,0.00
2013-6-10,75,68,63,67,60,55,81,76,67,29.88,29.73,3,0,6,0.25
2013-6-11,80,68,56,68,59,50,82,74,65,29.91,29.80,9,2,11,0.00
2013-6-12,80,70,64,71,62,55,81,76,70,29.91,29.62,3,0,9,0.76
2013-6-13,77,68,60,62,58,52,82,69,53,29.97,29.60,13,1,14,0.51
2013-6-14,79,67,55,58,54,48,82,66,42,30.10,29.97,7,1,10,0.00
2013-6-15,74,66,55,64,58,47,82,76,67,30.05,29.85,7,1,13,0.00
2013-6-16,80,70,64,67,60,55,81,71,53,29.87,29.78,9,2,12,1.64
2013-6-17,83,72,58,64,58,51,82,63,38,29.91,29.83,8,1,14,0.00
2013-6-18,75,66,57,58,52,43,82,63,35,30.07,29.90,6,1,10,0.00
2013-6-19,78,65,48,52,46,42,82,54,31,30.17,30.08,4,1,7,0.00
2013-6-20,86,70,51,60,53,45,81,58,33,30.18,30.10,6,1,8,0.00
2013-6-21,84,75,64,67,63,58,80,67,53,30.14,29.94,7,1,13,0.00
2013-6-22,88,77,69,71,67,62,80,72,52,30.08,29.93,6,1,10,0.00
2013-6-23,88,80,69,71,68,63,81,67,52,30.00,29.91,9,3,13,0.00
2013-6-24,86,78,71,70,68,64,81,72,54,30.02,29.83,13,2,16,0.00
2013-6-25,82,72,67,73,65,58,82,78,73,29.97,29.79,7,1,13,0.65
2013-6-26,87,77,67,72,67,59,83,73,55,29.83,29.70,4,1,8,0.00
2013-6-27,83,76,68,72,67,60,82,75,59,29.73,29.64,8,2,15,0.00
2013-6-28,79,72,65,67,62,58,83,73,61,29.64,29.53,12,1,15,0.11
2013-6-29,76,68,62,66,60,55,84,77,70,29.74,29.55,3,0,7,0.41
2013-6-30,83,72,63,64,58,46,83,64,36,29.97,29.74,5,1,10,0.00
2013-7-1,80,69,58,55,50,45,75,54,37,30.08,29.97,9,1,13,0.00
2013-7-2,67,63,57,60,53,41,83,72,43,30.08,30.03,6,0,6,0.19
2013-7-3,83,69,61,68,61,53,83,76,56,30.07,29.99,6,1,10,0.25
2013-7-4,80,71,63,65,60,56,84,71,49,30.11,30.04,5,1,10,0.01
2013-7-5,87,75,64,66,63,56,83,66,45,30.09,30.00,4,1,10,0.00
2013-7-6,87,75,67,70,66,60,82,74,52,30.06,29.95,6,1,8,0.00
2013-7-7,86,77,71,72,68,64,82,75,60,30.00,29.92,9,1,13,0.00
2013-7-8,79,76,72,72,69,65,82,80,77,29.99,29.92,11,1,14,0.02
2013-7-9,86,75,68,76,68,60,84,77,66,29.97,29.83,5,1,11,0.10
2013-7-10,81,76,64,73,65,57,83,69,50,29.95,29.78,8,2,17,0.00
2013-7-11,84,70,58,61,56,51,84,63,37,30.05,29.96,5,1,12,0.00
2013-7-12,86,73,58,60,57,53,83,61,35,30.15,30.04,3,1,8,0.00
2013-7-13,89,76,61,64,59,55,82,59,36,30.17,30.11,4,1,8,0.00
2013-7-14,94,81,66,71,66,59,82,64,42,30.21,30.16,5,1,10,0.00
2013-7-15,96,83,72,77,72,64,82,70,49,30.26,30.18,3,0,8,0.00
2013-7-16,91,83,74,77,72,66,82,69,55,30.27,30.21,7,2,11,0.00
2013-7-17,92,84,76,78,73,69,81,71,55,30.26,30.13,9,2,12,0.00
2013-7-18,93,85,75,77,73,68,81,68,52,30.13,29.89,8,2,14,0.00
2013-7-19,92,85,78,75,74,71,81,69,54,29.91,29.67,15,4,24,0.08
2013-7-20,86,79,68,73,63,57,83,61,39,29.92,29.70,7,1,13,0.00
2013-7-21,86,72,62,69,58,51,81,62,47,29.99,29.87,9,1,9,1.74
2013-7-22,86,74,64,70,65,58,84,73,54,29.93,29.71,4,1,11,0.10
2013-7-23,79,72,58,71,63,50,83,73,52,29.93,29.63,9,2,16,0.00
2013-7-24,78,63,50,54,50,46,85,65,39,30.04,29.94,6,1,8,0.00
2013-7-25,78,66,53,58,53,48,84,65,42,30.10,30.03,6,1,12,0.00
2013-7-26,75,67,62,62,58,54,83,74,62,30.04,29.86,7,1,12,0.26
2013-7-27,68,62,56,61,55,50,85,78,69,29.86,29.80,10,2,15,0.00
2013-7-28,65,58,54,56,52,48,85,80,66,29.95,29.80,9,2,18,0.45
2013-7-29,70,62,57,58,54,51,86,77,63,30.19,29.93,7,1,10,0.04
2013-7-30,81,66,50,62,55,45,86,69,49,30.22,30.09,4,1,7,0.03
2013-7-31,71,66,63,66,61,57,84,83,79,30.10,29.90,3,0,9,0.13
2013-8-1,77,68,62,64,58,54,86,72,46,29.93,29.89,12,2,16,0.01
2013-8-2,74,67,60,66,61,55,85,82,77,29.92,29.82,7,1,10,0.02
2013-8-3,79,68,58,64,56,52,86,67,43,30.07,29.90,9,1,13,0.00
2013-8-4,75,65,55,57,52,48,86,67,46,30.19,30.07,8,1,11,0.00
2013-8-5,73,61,50,62,54,45,87,76,59,30.11,29.92,4,0,8,0.00
2013-8-6,78,70,65,70,65,60,85,83,74,29.92,29.83,5,1,9,0.01
2013-8-7,81,73,64,73,66,58,86,80,68,29.92,29.78,6,1,11,0.27
2013-8-8,81,69,59,60,55,50,87,65,37,30.02,29.92,3,0,6,0.00
2013-8-9,80,69,56,63,58,51,85,70,48,30.00,29.95,8,1,13,0.00
2013-8-10,80,70,60,62,57,52,86,65,42,30.12,30.01,3,1,9,0.00
2013-8-11,76,68,59,60,57,54,86,70,48,30.11,30.03,5,1,11,0.00
2013-8-12,77,68,65,69,62,58,86,81,74,30.04,29.84,2,0,4,0.91
2013-8-13,68,61,52,61,51,47,87,71,49,30.11,29.89,9,1,12,0.00
2013-8-14,72,58,47,54,49,42,87,72,46,30.21,30.12,9,1,11,0.00
2013-8-15,75,61,48,60,51,43,87,72,48,30.16,30.08,9,1,13,0.00
2013-8-16,83,67,53,62,54,47,87,67,39,30.19,30.12,4,0,9,0.00
2013-8-17,85,70,54,62,55,49,86,63,34,30.25,30.16,5,0,6,0.00
2013-8-18,84,70,55,62,57,50,86,67,43,30.22,30.09,6,1,8,0.00
2013-8-19,82,69,55,63,58,49,87,69,47,30.11,30.02,8,1,11,0.00
2013-8-20,85,73,61,70,64,56,86,74,51,30.10,30.04,7,1,13,0.00
2013-8-21,87,77,65,70,66,59,85,70,51,30.07,29.93,8,1,13,0.00
2013-8-22,78,70,64,70,65,58,86,83,74,30.07,29.94,10,1,24,0.11
2013-8-23,84,70,54,60,54,49,86,62,32,30.18,30.07,3,0,6,0.01
2013-8-24,85,71,56,62,57,52,87,66,39,30.28,30.17,5,1,7,0.00
2013-8-25,86,75,63,68,63,58,84,68,53,30.25,30.10,9,2,15,0.00
2013-8-26,84,77,70,73,69,65,84,76,67,30.12,29.95,9,2,12,0.00
2013-8-27,90,81,73,77,72,66,85,75,58,29.96,29.76,13,2,14,0.22
2013-8-28,87,77,72,74,70,66,86,77,59,30.00,29.77,2,0,6,0.19
2013-8-29,91,78,66,71,66,61,87,70,45,30.07,29.97,3,1,10,0.00
2013-8-30,88,77,68,74,69,63,86,76,59,29.97,29.71,9,2,16,0.00
2013-8-31,83,73,64,68,64,59,86,76,59,29.84,29.77,4,0,6,0.00
2013-9-1,84,73,64,72,67,59,86,81,64,29.82,29.69,8,1,12,0.00
2013-9-2,72,66,60,67,58,53,88,77,67,29.96,29.73,9,1,13,0.00
2013-9-3,74,64,55,57,55,52,87,72,53,30.05,29.95,9,1,12,0.00
2013-9-4,79,67,55,64,58,50,88,75,53,30.10,30.01,9,2,16,0.00
2013-9-5,76,64,54,61,50,43,88,63,31,30.27,30.11,3,1,7,0.00
2013-9-6,82,65,50,58,52,47,88,66,36,30.26,30.01,8,1,8,0.00
2013-9-7,81,72,65,69,64,57,86,77,64,30.02,29.88,6,1,11,0.06
2013-9-8,80,71,65,64,60,57,87,71,49,30.07,29.93,7,1,10,0.00
2013-9-9,87,72,60,74,65,55,87,78,64,30.02,29.80,6,1,10,2.89
2013-9-10,92,84,77,74,70,66,83,64,43,29.95,29.81,11,2,15,0.00
2013-9-11,86,77,68,72,68,63,86,73,50,30.02,29.93,5,2,11,0.00
2013-9-12,77,68,57,62,57,50,87,69,46,30.04,29.89,5,1,10,0.01
2013-9-13,66,56,48,50,44,38,87,67,36,30.15,30.04,5,1,9,0.00
2013-9-14,68,55,41,54,46,37,88,74,51,30.20,30.06,9,1,13,0.00
2013-9-15,59,56,52,55,51,46,87,82,70,30.15,30.04,2,0,5,0.10
2013-9-16,65,55,48,51,48,44,88,77,52,30.37,30.16,4,0,8,0.00
2013-9-17,71,54,39,52,45,36,89,73,45,30.41,30.19,5,0,8,0.01
2013-9-18,80,65,52,60,55,48,88,71,49,30.19,29.95,5,1,9,0.01
2013-9-19,76,69,64,69,63,57,86,81,69,29.98,29.81,5,1,10,0.78
2013-9-20,72,70,63,68,66,59,86,85,82,29.83,29.71,10,2,14,0.00
2013-9-21,64,59,54,59,52,48,88,78,58,29.92,29.70,6,1,14,0.00
2013-9-22,56,52,46,48,45,42,88,77,65,30.09,29.92,3,0,8,0.00
2013-9-23,68,52,39,48,43,35,89,74,49,30.19,30.09,4,0,10,0.00
2013-9-24,72,56,42,52,47,39,89,74,46,30.15,29.98,3,0,9,0.00
2013-9-25,74,58,46,54,49,42,88,73,44,30.02,29.95,4,0,8,0.00
2013-9-26,79,60,45,55,49,41,88,71,36,30.12,29.99,4,0,6,0.01
2013-9-27,81,63,48,57,52,43,88,70,40,30.21,30.11,3,0,11,0.00
2013-9-28,81,67,52,60,54,48,87,66,41,30.15,29.92,6,1,14,0.00
2013-9-29,73,63,52,62,54,48,87,73,52,30.00,29.89,7,1,11,0.37
2013-9-30,73,59,50,57,51,46,88,76,47,30.00,29.89,5,0,8,0.00
2013-10-1,74,63,54,66,59,49,87,85,75,29.96,29.89,8,1,13,0.00
2013-10-2,79,65,53,63,51,41,88,65,27,30.10,29.91,3,0,6,0.01
2013-10-3,78,65,52,69,60,48,88,83,72,30.03,29.88,7,1,10,0.00
2013-10-4,79,70,65,69,64,59,87,82,71,29.98,29.89,5,1,9,0.07
2013-10-5,78,70,65,72,65,60,87,84,81,29.99,29.76,6,0,11,0.48
2013-10-6,71,60,51,67,56,48,88,85,68,29.77,29.67,6,2,13,0.24
2013-10-7,61,53,46,51,47,43,89,82,63,30.10,29.68,11,2,16,0.42
2013-10-8,74,57,42,54,47,39,89,72,47,30.23,30.10,7,1,11,0.00
2013-10-9,75,58,45,52,48,41,88,72,41,30.30,30.17,5,0,10,0.00
2013-10-10,76,57,43,53,47,39,88,73,41,30.21,30.10,2,0,6,0.00
2013-10-11,73,57,43,52,46,40,88,71,35,30.15,30.03,4,0,8,0.01
2013-10-12,78,62,48,62,53,45,88,74,46,30.09,29.97,6,1,17,0.20
2013-10-13,62,54,44,57,46,40,88,78,57,30.39,30.10,10,1,11,0.01
2013-10-14,65,50,38,47,40,35,89,71,39,30.44,30.25,6,0,12,0.01
2013-10-15,65,55,44,58,50,40,89,84,75,30.25,29.78,8,1,12,0.29
2013-10-16,61,53,51,56,49,47,88,85,81,29.88,29.79,8,1,16,0.14
2013-10-17,52,49,42,48,46,39,90,87,85,29.88,29.74,6,1,10,0.51
2013-10-18,59,48,40,51,43,36,90,83,70,29.91,29.84,10,2,23,0.01
2013-10-19,53,46,41,45,40,33,90,82,51,29.89,29.75,7,1,14,0.26
2013-10-20,57,48,37,51,41,34,90,78,55,29.89,29.73,7,1,18,0.06
2013-10-21,54,48,41,51,41,26,89,77,57,29.90,29.76,13,3,21,0.11
2013-10-22,48,42,34,37,32,26,89,70,56,29.92,29.89,10,3,15,0.08
2013-10-23,44,37,32,37,33,29,90,84,58,29.98,29.88,6,1,12,0.05
2013-10-24,43,37,34,38,33,30,90,85,68,30.23,29.96,11,2,11,0.09
2013-10-25,47,40,32,37,33,29,90,76,53,30.36,30.02,7,2,16,0.00
2013-10-26,54,48,40,42,37,33,78,66,55,30.03,29.77,18,4,27,0.04
2013-10-27,51,43,36,37,35,33,89,74,55,30.05,29.97,12,2,16,0.00
2013-10-28,48,40,32,40,34,29,90,80,67,30.43,30.04,4,0,7,0.00
2013-10-29,52,43,38,40,34,30,87,72,62,30.45,30.23,4,0,7,0.00
2013-10-30,65,50,35,54,44,32,90,80,57,30.22,29.86,8,1,9,0.27
2013-10-31,63,60,55,58,55,52,89,85,84,29.84,29.09,10,2,16,1.20
2013-11-1,55,47,45,52,44,42,90,88,83,29.67,29.17,15,4,24,0.36
2013-11-2,50,45,42,43,40,37,91,83,65,30.11,29.67,2,0,8,0.06
2013-11-3,52,43,35,40,35,33,91,76,53,30.39,30.11,3,0,9,0.14
2013-11-4,54,46,39,42,35,33,85,68,49,30.40,30.21,7,2,19,0.00
2013-11-5,60,54,51,49,46,42,85,75,65,30.31,30.04,11,2,15,0.00
2013-11-6,56,50,41,53,47,38,91,88,71,30.04,29.73,16,3,24,1.36
2013-11-7,42,39,36,39,32,29,91,76,62,30.19,30.04,13,3,14,0.01
2013-11-8,45,40,34,34,31,27,89,71,53,30.31,30.09,6,1,10,0.00
2013-11-9,52,48,42,44,38,32,78,70,61,30.09,29.80,19,5,22,0.00
2013-11-10,47,42,35,34,32,29,86,68,58,30.28,29.95,13,4,22,0.00
2013-11-11,46,37,27,39,31,21,90,81,71,30.42,30.05,8,2,17,0.17
2013-11-12,35,28,23,25,21,17,89,75,51,30.63,30.42,12,2,17,0.00
2013-11-13,41,32,21,26,23,18,90,72,50,30.56,30.16,14,3,20,0.00
2013-11-14,48,40,33,34,29,25,76,64,48,30.17,29.96,13,3,18,0.00
2013-11-15,50,43,37,36,32,30,82,67,52,30.01,29.96,9,2,11,0.00
2013-11-16,56,49,37,53,44,32,89,83,75,30.02,29.64,12,3,20,0.37
2013-11-17,65,56,42,61,53,38,90,88,76,29.65,29.15,28,6,35,1.41
2013-11-18,46,38,35,40,30,25,80,72,64,30.19,29.55,19,7,26,0.00
2013-11-19,46,36,30,26,25,23,80,64,42,30.40,30.20,4,1,10,0.00
2013-11-20,45,37,28,35,26,23,85,67,43,30.40,30.21,8,1,12,0.00
2013-11-21,52,46,39,45,40,35,90,81,72,30.25,30.16,4,0,9,0.08
2013-11-22,47,37,26,44,33,24,90,84,70,30.43,30.16,9,2,12,0.00
2013-11-23,31,24,18,25,16,7,89,71,49,30.62,30.33,14,4,21,0.00
2013-11-24,24,21,17,19,13,8,86,72,55,30.67,30.39,9,2,12,0.00
2013-11-25,34,27,22,31,21,10,91,77,58,30.39,30.07,11,4,18,0.09
2013-11-26,34,32,25,30,26,17,88,81,67,30.08,29.98,6,2,12,0.00
2013-11-27,30,25,21,20,16,13,83,70,53,30.25,30.06,7,2,16,0.00
2013-11-28,28,25,21,24,20,16,89,81,65,30.48,30.25,6,1,9,0.03
2013-11-29,33,27,19,27,22,16,91,83,71,30.69,30.48,4,0,5,0.00
2013-11-30,46,37,28,33,28,21,80,70,58,30.51,30.07,7,2,14,0.00
2013-12-1,43,38,34,35,31,27,90,77,60,30.10,30.02,4,0,9,0.00
2013-12-2,41,35,30,32,28,24,90,76,58,30.02,29.88,5,1,6,0.00
2013-12-3,36,34,31,33,30,24,90,86,69,29.90,29.80,8,2,11,0.70
2013-12-4,58,45,36,54,42,33,90,89,85,29.85,29.54,8,2,18,0.02
2013-12-5,55,36,27,52,29,19,88,77,67,30.20,29.56,19,6,23,0.00
2013-12-6,27,23,20,19,17,15,88,77,71,30.46,30.20,7,2,14,0.00
2013-12-7,20,18,12,17,14,10,90,83,77,30.67,30.46,6,2,9,0.00
2013-12-8,22,18,13,19,14,10,91,84,68,30.63,30.00,6,1,9,0.10
2013-12-9,29,24,16,26,19,10,91,81,67,30.16,29.89,15,5,24,0.03
2013-12-10,22,17,12,18,12,3,91,81,67,30.23,29.96,12,4,20,0.02
2013-12-11,21,17,12,18,14,9,91,87,77,30.50,30.23,10,3,13,0.03
2013-12-12,25,17,12,21,14,7,91,87,80,30.49,30.20,8,2,13,0.01
2013-12-13,30,26,21,23,21,16,87,80,71,30.28,30.17,6,1,11,0.00
2013-12-14,21,20,17,19,16,13,90,88,81,30.27,29.94,8,2,13,0.10
2013-12-15,24,19,16,21,15,10,91,84,72,30.09,29.86,10,3,18,0.02
2013-12-16,24,16,7,15,11,5,90,81,62,30.21,30.05,5,1,10,0.00
2013-12-17,31,26,18,28,23,15,91,88,76,30.04,29.88,8,2,16,0.07
2013-12-18,31,28,25,27,20,15,91,73,59,30.15,29.85,11,3,15,0.00
2013-12-19,41,35,29,35,31,23,91,85,74,29.98,29.82,5,1,11,0.00
2013-12-20,33,32,30,31,30,28,91,91,90,29.88,29.77,4,1,7,0.24
2013-12-21,34,32,30,31,30,28,92,91,91,29.89,29.72,6,1,12,0.15
2013-12-22,33,31,27,31,28,25,92,92,90,30.03,29.62,5,1,10,0.18
2013-12-23,28,24,17,25,21,15,92,90,81,30.34,30.04,7,1,11,0.01
2013-12-24,24,18,13,18,14,10,90,86,77,30.53,30.34,3,0,6,0.02
2013-12-25,26,21,14,24,18,11,92,88,83,30.48,30.08,8,2,11,0.04
2013-12-26,28,25,22,25,22,17,92,87,79,30.27,30.05,14,2,17,0.08
2013-12-27,40,33,28,34,30,26,92,86,75,30.32,30.05,11,2,19,0.00
2013-12-28,49,40,31,36,34,29,91,78,60,30.09,29.85,10,2,18,0.00
2013-12-29,42,32,19,34,25,11,90,78,68,30.11,29.75,7,3,15,0.00
2013-12-30,19,17,15,14,10,5,89,76,64,30.32,30.12,6,2,11,0.00
2013-12-31,18,15,13,15,12,10,91,88,80,30.40,30.14,8,3,16,0.01
2014-1-1,14,12,11,11,7,3,88,79,68,30.45,30.31,6,2,12,0.03
2014-1-2,15,11,3,9,5,-2,82,75,59,30.42,30.24,8,2,12,0.00